Time;durP1;ratioP1;P1;durP2;ratioP2;P2;SDS_P1;SDS_P2;PMS_P1;PMS_P2;Temp;Humidity;BMP_temperature;BMP_pressure;BME280_temperature;BME280_humidity;BME280_pressure;Samples;Min_cycle;Max_cycle;Signal;HPM_P1;HPM_P2
2021/06/22 00:00:51;;;;;;;10.30;4.57;;;;;;;14.05;100.00;101389.81;5264446;28;20382;-85
2021/06/22 00:03:21;;;;;;;9.23;4.43;;;;;;;14.02;100.00;101391.03;5262524;28;20153;-85
2021/06/22 00:05:51;;;;;;;13.55;5.68;;;;;;;13.96;100.00;101391.72;5249471;28;20112;-85
2021/06/22 00:08:22;;;;;;;9.93;5.50;;;;;;;13.93;100.00;101394.75;5257245;28;20158;-85
2021/06/22 00:10:53;;;;;;;9.32;5.15;;;;;;;13.90;100.00;101390.53;5243653;28;20112;-85
2021/06/22 00:13:23;;;;;;;10.90;5.05;;;;;;;13.91;100.00;101386.84;5247834;28;20016;-85
2021/06/22 00:15:54;;;;;;;14.20;5.35;;;;;;;13.91;100.00;101400.34;5253866;28;20372;-85
2021/06/22 00:18:24;;;;;;;12.25;5.32;;;;;;;13.87;100.00;101388.22;5258311;28;20035;-85
2021/06/22 00:20:54;;;;;;;11.50;5.25;;;;;;;13.88;100.00;101389.88;5257115;28;20020;-85
2021/06/22 00:23:25;;;;;;;17.77;5.43;;;;;;;13.87;100.00;101392.78;5257597;28;20021;-85
2021/06/22 00:25:58;;;;;;;14.40;5.15;;;;;;;13.87;100.00;101392.78;5243483;28;20050;-85
2021/06/22 00:28:29;;;;;;;15.80;5.28;;;;;;;13.79;100.00;101396.31;5243444;28;20031;-85
2021/06/22 00:30:59;;;;;;;12.30;4.68;;;;;;;13.80;100.00;101381.81;5256462;28;20214;-85
2021/06/22 00:33:30;;;;;;;11.25;5.10;;;;;;;13.86;100.00;101383.00;5253151;28;20044;-85
2021/06/22 00:36:00;;;;;;;11.02;4.57;;;;;;;13.85;100.00;101392.94;5261065;28;20032;-85
2021/06/22 00:38:31;;;;;;;12.10;4.47;;;;;;;13.84;100.00;101393.09;5247815;28;20502;-85
2021/06/22 00:41:01;;;;;;;11.90;5.15;;;;;;;13.84;100.00;101393.94;5247553;28;20028;-85
2021/06/22 00:43:32;;;;;;;9.75;4.82;;;;;;;13.82;100.00;101384.38;5245846;28;20380;-85
2021/06/22 00:46:02;;;;;;;9.45;5.10;;;;;;;13.82;100.00;101378.97;5250699;28;20115;-85
2021/06/22 00:48:33;;;;;;;14.60;5.35;;;;;;;13.85;100.00;101387.53;5250840;28;20020;-85
2021/06/22 00:51:03;;;;;;;10.27;4.70;;;;;;;13.82;100.00;101387.06;5267537;28;20131;-85
2021/06/22 00:53:34;;;;;;;8.02;4.45;;;;;;;13.79;100.00;101384.69;5253158;28;20020;-85
2021/06/22 00:56:05;;;;;;;14.02;5.00;;;;;;;13.79;100.00;101374.75;5247307;28;20039;-85
2021/06/22 00:58:36;;;;;;;12.98;4.28;;;;;;;13.76;100.00;101379.69;5263164;28;20152;-85
2021/06/22 01:01:06;;;;;;;12.63;4.65;;;;;;;13.75;100.00;101384.19;5267650;28;20119;-85
2021/06/22 01:03:37;;;;;;;11.52;5.30;;;;;;;13.79;100.00;101384.69;5254482;28;20027;-85
2021/06/22 01:06:10;;;;;;;13.90;5.22;;;;;;;13.80;100.00;101394.47;5261939;28;20032;-85
2021/06/22 01:08:49;;;;;;;10.80;5.20;;;;;;;13.79;100.00;101406.28;5267899;28;20023;-85
2021/06/22 01:11:32;;;;;;;13.88;5.55;;;;;;;13.74;100.00;101399.53;5268197;28;20063;-85
2021/06/22 01:14:24;;;;;;;12.90;5.18;;;;;;;13.72;100.00;101398.88;5251691;28;20115;-85
2021/06/22 01:16:55;;;;;;;8.90;4.82;;;;;;;13.74;100.00;101393.31;5247840;28;20035;-85
2021/06/22 01:19:25;;;;;;;13.00;5.38;;;;;;;13.70;100.00;101411.72;5260496;28;20454;-85
2021/06/22 01:21:56;;;;;;;18.58;5.78;;;;;;;13.67;100.00;101409.34;5259999;28;20107;-85
2021/06/22 01:24:26;;;;;;;9.05;4.53;;;;;;;13.69;100.00;101406.47;5262222;28;20089;-85
2021/06/22 01:26:58;;;;;;;8.65;4.53;;;;;;;13.69;100.00;101412.69;5258263;28;20070;-85
2021/06/22 01:29:29;;;;;;;15.27;4.90;;;;;;;13.65;100.00;101408.66;5260064;28;20024;-85
2021/06/22 01:32:00;;;;;;;8.98;5.00;;;;;;;13.64;100.00;101409.69;5247521;28;20025;-85
2021/06/22 01:34:30;;;;;;;10.60;4.70;;;;;;;13.63;100.00;101410.69;5250980;28;20032;-84
2021/06/22 01:37:01;;;;;;;15.38;5.15;;;;;;;13.67;100.00;101406.66;5267426;28;20039;-85
2021/06/22 01:39:32;;;;;;;12.02;5.55;;;;;;;13.64;100.00;101411.53;5247151;28;20025;-85
2021/06/22 01:42:03;;;;;;;10.00;4.80;;;;;;;13.62;100.00;101414.41;5246542;28;20020;-85
2021/06/22 01:44:34;;;;;;;11.23;4.50;;;;;;;13.62;100.00;101406.34;5246310;28;20420;-85
2021/06/22 01:47:05;;;;;;;14.88;5.00;;;;;;;13.61;100.00;101403.81;5261446;28;20024;-85
2021/06/22 01:49:36;;;;;;;14.00;6.22;;;;;;;13.65;100.00;101418.59;5254746;28;20023;-85
2021/06/22 01:52:07;;;;;;;13.43;3.70;;;;;;;13.64;100.00;101415.06;5250661;28;20030;-85
2021/06/22 01:54:39;;;;;;;13.00;4.20;;;;;;;13.61;100.00;101415.44;5257233;28;20020;-85
2021/06/22 01:57:10;;;;;;;8.77;4.30;;;;;;;13.59;100.00;101412.06;5253501;28;20034;-85
2021/06/22 01:59:47;;;;;;;12.63;4.72;;;;;;;13.61;100.00;101395.72;5266138;28;20035;-85
2021/06/22 02:02:19;;;;;;;9.02;3.97;;;;;;;13.60;100.00;101402.94;5245886;28;20025;-85
2021/06/22 02:04:51;;;;;;;9.35;4.28;;;;;;;13.63;100.00;101408.00;5246246;28;20107;-85
2021/06/22 02:07:22;;;;;;;8.95;3.85;;;;;;;13.59;100.00;101406.66;5253435;28;20032;-85
2021/06/22 02:09:55;;;;;;;11.93;4.25;;;;;;;13.61;100.00;101404.66;5244359;28;20031;-85
2021/06/22 02:12:26;;;;;;;6.82;3.78;;;;;;;13.58;100.00;101398.75;5246017;28;20017;-85
2021/06/22 02:14:56;;;;;;;11.55;4.00;;;;;;;13.59;100.00;101398.56;5258159;28;20616;-85
2021/06/22 02:17:27;;;;;;;15.30;5.07;;;;;;;13.53;100.00;101401.97;5257044;28;20051;-85
2021/06/22 02:19:58;;;;;;;8.07;4.68;;;;;;;13.58;100.00;101402.28;5266434;28;20016;-85
2021/06/22 02:22:28;;;;;;;9.15;4.03;;;;;;;13.55;100.00;101408.00;5266997;28;20027;-84
2021/06/22 02:25:00;;;;;;;11.07;4.40;;;;;;;13.60;100.00;101407.50;5261038;28;20029;-84
2021/06/22 02:27:32;;;;;;;8.85;4.63;;;;;;;13.55;100.00;101405.31;5246368;28;20093;-84
2021/06/22 02:30:09;;;;;;;10.80;4.43;;;;;;;13.55;100.00;101404.47;5254376;28;20032;-84
2021/06/22 02:32:41;;;;;;;22.98;5.03;;;;;;;13.54;100.00;101403.63;5250769;28;20023;-84
2021/06/22 02:35:13;;;;;;;7.68;4.50;;;;;;;13.51;100.00;101403.16;5256209;28;20020;-84
2021/06/22 02:37:44;;;;;;;12.95;4.85;;;;;;;13.50;100.00;101405.00;5262186;28;20490;-84
2021/06/22 02:40:15;;;;;;;10.95;5.15;;;;;;;13.51;100.00;101413.94;5254973;28;20114;-84
2021/06/22 02:42:47;;;;;;;13.93;4.75;;;;;;;13.40;100.00;101412.44;5265095;28;20079;-84
2021/06/22 02:45:17;;;;;;;12.93;4.88;;;;;;;13.44;100.00;101411.91;5251612;28;20024;-84
2021/06/22 02:47:48;;;;;;;12.23;5.18;;;;;;;13.42;100.00;101410.41;5257741;28;20016;-84
2021/06/22 02:50:20;;;;;;;12.05;4.93;;;;;;;13.37;100.00;101410.94;5242104;28;20169;-84
2021/06/22 02:52:50;;;;;;;16.65;5.43;;;;;;;13.33;100.00;101423.06;5266650;28;20085;-84
2021/06/22 02:55:21;;;;;;;15.52;5.63;;;;;;;13.30;100.00;101420.69;5250004;28;20119;-84
2021/06/22 02:57:55;;;;;;;12.98;5.03;;;;;;;13.33;100.00;101430.31;5256461;28;20479;-83
2021/06/22 03:00:28;;;;;;;18.13;5.72;;;;;;;13.32;100.00;101434.00;5252484;28;20360;-84
2021/06/22 03:02:59;;;;;;;13.65;5.45;;;;;;;13.29;100.00;101435.19;5254239;28;20017;-83
2021/06/22 03:05:29;;;;;;;14.93;5.53;;;;;;;13.28;100.00;101430.81;5251666;28;20040;-83
2021/06/22 03:08:01;;;;;;;14.23;6.47;;;;;;;13.28;100.00;101429.97;5252397;28;20024;-84
2021/06/22 03:10:31;;;;;;;17.08;6.25;;;;;;;13.24;100.00;101431.31;5258574;28;20036;-84
2021/06/22 03:13:02;;;;;;;15.55;5.15;;;;;;;13.21;100.00;101419.00;5246268;28;20021;-84
2021/06/22 03:15:32;;;;;;;17.85;5.85;;;;;;;13.18;100.00;101413.94;5265614;28;20505;-83
2021/06/22 03:18:03;;;;;;;15.05;5.18;;;;;;;13.14;100.00;101416.13;5249880;28;20475;-84
2021/06/22 03:20:33;;;;;;;17.48;6.07;;;;;;;13.10;100.00;101417.50;5227168;28;20028;-84
2021/06/22 03:23:04;;;;;;;14.13;6.05;;;;;;;13.08;100.00;101424.88;5248828;28;20024;-84
2021/06/22 03:25:34;;;;;;;17.95;5.90;;;;;;;13.03;100.00;101413.78;5265998;28;20024;-84
2021/06/22 03:28:06;;;;;;;13.95;5.60;;;;;;;13.02;100.00;101409.41;5251968;28;20047;-84
2021/06/22 03:30:39;;;;;;;17.92;6.15;;;;;;;12.98;100.00;101423.38;5265341;28;20542;-84
2021/06/22 03:33:10;;;;;;;14.98;5.80;;;;;;;12.93;100.00;101432.78;5245170;28;20016;-84
2021/06/22 03:35:40;;;;;;;17.27;5.78;;;;;;;12.88;100.00;101434.31;5258677;28;20027;-84
2021/06/22 03:38:11;;;;;;;17.55;6.75;;;;;;;12.83;100.00;101434.81;5257098;28;20480;-84
2021/06/22 03:40:41;;;;;;;18.70;5.53;;;;;;;12.82;100.00;101441.22;5258520;28;20116;-84
2021/06/22 03:43:12;;;;;;;13.07;6.43;;;;;;;12.75;100.00;101466.25;5246456;28;20024;-84
2021/06/22 03:45:42;;;;;;;19.88;6.35;;;;;;;12.74;100.00;101464.56;5259116;28;20060;-84
2021/06/22 03:48:13;;;;;;;17.85;6.10;;;;;;;12.82;100.00;101461.91;5256493;28;20047;-84
2021/06/22 03:50:43;;;;;;;22.17;7.15;;;;;;;12.80;100.00;101470.16;5252279;28;20020;-84
2021/06/22 03:53:14;;;;;;;18.85;6.15;;;;;;;12.77;100.00;101480.41;5245834;28;20020;-84
2021/06/22 03:55:44;;;;;;;19.67;6.80;;;;;;;12.80;100.00;101480.06;5258622;28;20043;-83
2021/06/22 03:58:15;;;;;;;18.85;6.60;;;;;;;12.76;100.00;101489.50;5258262;28;20327;-84
2021/06/22 04:00:46;;;;;;;16.02;7.03;;;;;;;12.76;100.00;101486.81;5252127;28;20487;-84
2021/06/22 04:03:16;;;;;;;27.13;7.75;;;;;;;12.70;100.00;101488.28;5251622;28;20467;-84
2021/06/22 04:05:47;;;;;;;20.88;6.82;;;;;;;12.72;100.00;101494.38;5265609;28;20062;-84
2021/06/22 04:08:17;;;;;;;22.50;7.53;;;;;;;12.67;100.00;101502.94;5262767;28;20030;-84
2021/06/22 04:10:48;;;;;;;19.58;7.85;;;;;;;12.67;100.00;101497.53;5254010;28;20032;-83
2021/06/22 04:13:18;;;;;;;25.90;8.15;;;;;;;12.67;100.00;101502.09;5250620;28;20013;-84
2021/06/22 04:15:49;;;;;;;25.70;8.13;;;;;;;12.68;100.00;101510.00;5264706;28;20035;-84
2021/06/22 04:18:21;;;;;;;18.13;8.13;;;;;;;12.67;100.00;101505.63;5266636;28;20036;-84
2021/06/22 04:20:52;;;;;;;21.88;7.40;;;;;;;12.68;100.00;101510.00;5258310;28;20028;-83
2021/06/22 04:23:23;;;;;;;22.98;7.95;;;;;;;12.67;100.00;101519.09;5266066;28;20020;-83
2021/06/22 04:25:53;;;;;;;18.63;7.47;;;;;;;12.67;100.00;101513.69;5270339;28;20028;-83
2021/06/22 04:28:24;;;;;;;17.55;7.13;;;;;;;12.62;100.00;101510.66;5263279;28;20039;-83
2021/06/22 04:30:54;;;;;;;21.58;8.57;;;;;;;12.69;100.00;101511.66;5275973;28;20510;-83
2021/06/22 04:33:25;;;;;;;22.30;8.38;;;;;;;12.73;100.00;101509.50;5272149;28;20035;-83
2021/06/22 04:35:57;;;;;;;22.45;7.32;;;;;;;12.69;100.00;101508.97;5281973;28;20027;-84
2021/06/22 04:38:27;;;;;;;14.63;7.53;;;;;;;12.67;100.00;101518.25;5273853;28;20067;-84
2021/06/22 04:40:57;;;;;;;18.35;7.20;;;;;;;12.73;100.00;101517.59;5280283;28;20025;-84
2021/06/22 04:43:28;;;;;;;22.50;7.97;;;;;;;12.75;100.00;101520.97;5245736;28;20048;-84
2021/06/22 04:45:58;;;;;;;22.45;7.32;;;;;;;12.75;100.00;101520.09;5277955;28;20353;-84
2021/06/22 04:48:29;;;;;;;27.23;8.98;;;;;;;12.74;100.00;101521.13;5264519;28;20047;-84
2021/06/22 04:50:59;;;;;;;16.80;7.57;;;;;;;12.70;100.00;101525.97;5282672;28;20023;-84
2021/06/22 04:53:30;;;;;;;24.02;8.00;;;;;;;12.71;100.00;101527.69;5264092;28;20130;-84
2021/06/22 04:56:00;;;;;;;17.42;8.90;;;;;;;12.77;100.00;101516.25;5271558;28;20012;-84
2021/06/22 04:58:31;;;;;;;16.15;6.88;;;;;;;12.75;100.00;101520.97;5272280;28;20058;-83
2021/06/22 05:01:04;;;;;;;24.38;7.30;;;;;;;12.76;100.00;101519.97;5256729;28;20539;-84
2021/06/22 05:03:35;;;;;;;21.35;7.38;;;;;;;12.79;100.00;101518.78;5274909;28;20377;-84
2021/06/22 05:06:06;;;;;;;20.95;8.18;;;;;;;12.77;100.00;101521.63;5266686;28;20368;-84
2021/06/22 05:08:36;;;;;;;19.23;7.38;;;;;;;12.77;100.00;101518.94;5265372;28;20024;-83
2021/06/22 05:11:07;;;;;;;23.30;7.47;;;;;;;12.80;100.00;101513.25;5259994;28;20107;-84
2021/06/22 05:13:38;;;;;;;16.27;7.85;;;;;;;12.82;100.00;101513.06;5250922;28;20092;-84
2021/06/22 05:16:08;;;;;;;18.45;6.93;;;;;;;12.79;100.00;101516.91;5250212;28;20028;-83
2021/06/22 05:18:39;;;;;;;21.65;7.38;;;;;;;12.81;100.00;101509.53;5257922;28;20437;-84
2021/06/22 05:21:09;;;;;;;18.02;7.30;;;;;;;12.78;100.00;101519.78;5270043;28;20035;-84
2021/06/22 05:23:40;;;;;;;20.15;8.13;;;;;;;12.86;100.00;101525.19;5259295;28;20027;-83
2021/06/22 05:26:11;;;;;;;22.85;7.20;;;;;;;12.89;100.00;101517.63;5257893;28;20041;-83
2021/06/22 05:28:41;;;;;;;20.33;7.35;;;;;;;12.91;100.00;101521.00;5261336;28;20021;-84
2021/06/22 05:31:12;;;;;;;15.00;8.63;;;;;;;12.89;100.00;101517.63;5253600;28;20103;-84
2021/06/22 05:33:43;;;;;;;20.25;8.70;;;;;;;12.85;100.00;101515.41;5259765;28;20081;-84
2021/06/22 05:36:13;;;;;;;19.63;6.32;;;;;;;12.88;100.00;101525.88;5263999;28;20430;-82
2021/06/22 05:38:45;;;;;;;21.70;6.80;;;;;;;12.81;100.00;101524.84;5262704;28;20552;-81
2021/06/22 05:41:16;;;;;;;18.13;6.82;;;;;;;12.84;100.00;101527.19;5256747;28;20024;-82
2021/06/22 05:43:46;;;;;;;24.15;6.10;;;;;;;12.90;100.00;101526.53;5257464;28;20048;-82
2021/06/22 05:46:17;;;;;;;25.90;7.03;;;;;;;12.95;100.00;101524.19;5246132;28;20037;-82
2021/06/22 05:48:47;;;;;;;14.45;6.45;;;;;;;12.90;100.00;101524.72;5264395;28;20027;-82
2021/06/22 05:51:18;;;;;;;19.38;7.03;;;;;;;12.95;100.00;101524.19;5258060;28;20169;-82
2021/06/22 05:53:48;;;;;;;18.67;6.32;;;;;;;12.96;100.00;101524.03;5257516;28;20372;-82
2021/06/22 05:56:19;;;;;;;16.35;6.53;;;;;;;12.98;100.00;101529.25;5261504;28;20028;-83
2021/06/22 05:58:49;;;;;;;18.67;6.90;;;;;;;13.01;100.00;101526.25;5266917;28;20051;-82
2021/06/22 06:01:20;;;;;;;19.42;6.93;;;;;;;12.99;100.00;101525.53;5258138;28;20052;-82
2021/06/22 06:03:50;;;;;;;19.05;6.13;;;;;;;12.95;100.00;101533.13;5269146;28;20031;-82
2021/06/22 06:06:20;;;;;;;11.70;5.68;;;;;;;13.00;100.00;101529.91;5269767;28;20055;-82
2021/06/22 06:08:51;;;;;;;19.13;6.90;;;;;;;12.99;100.00;101533.63;5256724;28;20282;-82
2021/06/22 06:11:21;;;;;;;14.80;6.18;;;;;;;12.95;100.00;101538.53;5269830;28;20043;-82
2021/06/22 06:13:52;;;;;;;19.17;6.30;;;;;;;13.01;100.00;101537.03;5271830;28;20012;-82
2021/06/22 06:16:22;;;;;;;14.82;5.65;;;;;;;13.03;100.00;101536.84;5256566;28;20028;-82
2021/06/22 06:18:53;;;;;;;20.45;6.78;;;;;;;13.04;100.00;101538.53;5268220;28;20019;-82
2021/06/22 06:21:25;;;;;;;15.18;6.25;;;;;;;13.01;100.00;101537.03;5254349;28;20020;-82
2021/06/22 06:23:57;;;;;;;17.73;6.78;;;;;;;13.01;100.00;101530.78;5267847;28;20027;-82
2021/06/22 06:26:31;;;;;;;15.73;6.70;;;;;;;13.04;100.00;101536.66;5254117;28;20027;-82
2021/06/22 06:29:12;;;;;;;17.40;6.75;;;;;;;13.02;100.00;101537.84;5249005;28;20028;-82
2021/06/22 06:31:43;;;;;;;17.55;7.53;;;;;;;13.05;100.00;101540.19;5255247;28;20023;-82
2021/06/22 06:34:13;;;;;;;17.55;7.32;;;;;;;13.09;100.00;101545.09;5251259;28;20392;-82
2021/06/22 06:36:44;;;;;;;20.17;7.82;;;;;;;13.16;100.00;101556.91;5256517;28;20027;-82
2021/06/22 06:39:14;;;;;;;20.13;8.23;;;;;;;13.21;100.00;101551.03;5259844;28;20360;-82
2021/06/22 06:41:45;;;;;;;17.38;7.03;;;;;;;13.27;100.00;101565.72;5256980;28;20107;-82
2021/06/22 06:44:15;;;;;;;23.52;7.72;;;;;;;13.28;100.00;101559.31;5253100;28;20020;-82
2021/06/22 06:46:45;;;;;;;17.85;7.85;;;;;;;13.30;100.00;101559.97;5266439;28;20060;-83
2021/06/22 06:49:16;;;;;;;20.15;8.13;;;;;;;13.38;100.00;101565.38;5252191;28;20031;-83
2021/06/22 06:51:46;;;;;;;19.25;7.60;;;;;;;13.35;100.00;101563.84;5253432;28;20282;-83
2021/06/22 06:54:17;;;;;;;17.58;7.70;;;;;;;13.37;100.00;101556.47;5247706;28;20033;-83
2021/06/22 06:56:47;;;;;;;21.70;8.20;;;;;;;13.39;100.00;101556.28;5247859;28;20039;-83
2021/06/22 06:59:18;;;;;;;20.40;8.50;;;;;;;13.40;100.00;101560.66;5257110;28;20046;-83
2021/06/22 07:01:48;;;;;;;17.42;7.45;;;;;;;13.36;100.00;101573.66;5266676;28;20115;-83
2021/06/22 07:04:19;;;;;;;18.08;8.45;;;;;;;13.39;100.00;101567.06;5257914;28;20031;-83
2021/06/22 07:06:49;;;;;;;17.20;8.65;;;;;;;13.37;100.00;101572.63;5259555;28;20028;-83
2021/06/22 07:09:20;;;;;;;20.70;8.25;;;;;;;13.30;100.00;101574.28;5248302;28;20035;-83
2021/06/22 07:11:51;;;;;;;21.77;8.88;;;;;;;13.25;100.00;101578.50;5261120;28;20024;-83
2021/06/22 07:14:23;;;;;;;19.70;8.80;;;;;;;13.17;100.00;101585.53;5248040;28;20024;-83
2021/06/22 07:16:53;;;;;;;21.02;9.50;;;;;;;13.18;100.00;101587.22;5246544;28;20020;-84
2021/06/22 07:19:24;;;;;;;19.98;8.15;;;;;;;13.18;100.00;101597.16;5245624;28;20020;-83
2021/06/22 07:21:54;;;;;;;18.38;8.98;;;;;;;13.13;100.00;101594.94;5245428;28;20021;-83
2021/06/22 07:24:25;;;;;;;18.05;8.90;;;;;;;13.03;100.00;101598.78;5246464;28;20028;-83
2021/06/22 07:26:56;;;;;;;19.92;9.00;;;;;;;13.00;100.00;101594.56;5258530;28;20031;-84
2021/06/22 07:29:26;;;;;;;20.95;9.23;;;;;;;12.92;100.00;101600.78;5245449;28;20041;-83
2021/06/22 07:31:57;;;;;;;24.17;9.88;;;;;;;12.84;100.00;101599.91;5245007;28;20128;-83
2021/06/22 07:34:27;;;;;;;20.58;9.98;;;;;;;12.77;100.00;101599.72;5262830;28;20571;-84
2021/06/22 07:36:58;;;;;;;20.67;9.23;;;;;;;12.87;100.00;101607.66;5265647;28;20486;-84
2021/06/22 07:39:29;;;;;;;21.33;9.05;;;;;;;12.86;100.00;101611.38;5265487;28;20016;-84
2021/06/22 07:41:59;;;;;;;18.70;8.50;;;;;;;12.88;100.00;101603.97;5265656;28;20031;-85
2021/06/22 07:44:30;;;;;;;17.55;8.70;;;;;;;12.96;100.00;101604.84;5251406;28;20038;-84
2021/06/22 07:47:00;;;;;;;28.98;9.88;;;;;;;12.95;100.00;101616.63;5253292;28;20082;-84
2021/06/22 07:49:31;;;;;;;24.45;10.30;;;;;;;13.06;100.00;101615.47;5245953;28;20032;-83
2021/06/22 07:52:01;;;;;;;19.45;9.20;;;;;;;13.06;100.00;101606.56;5260921;28;20541;-84
2021/06/22 07:54:32;;;;;;;21.45;9.43;;;;;;;13.12;100.00;101612.13;5267649;28;20058;-84
2021/06/22 07:57:03;;;;;;;22.80;10.27;;;;;;;13.19;100.00;101610.44;5273213;28;20026;-84
2021/06/22 07:59:33;;;;;;;23.30;10.32;;;;;;;13.22;100.00;101612.00;5249478;28;20087;-84
2021/06/22 08:02:04;;;;;;;21.95;10.15;;;;;;;13.34;100.00;101613.38;5250265;28;20035;-85
2021/06/22 08:04:34;;;;;;;23.15;10.32;;;;;;;13.39;100.00;101607.50;5261884;28;20024;-85
2021/06/22 08:07:05;;;;;;;16.95;9.77;;;;;;;13.43;100.00;101616.94;5260287;28;20050;-84
2021/06/22 08:09:35;;;;;;;25.67;10.00;;;;;;;13.41;100.00;101618.97;5264516;28;20043;-85
2021/06/22 08:12:06;;;;;;;13.77;8.80;;;;;;;13.44;100.00;101614.06;5272196;28;20475;-84
2021/06/22 08:14:37;;;;;;;16.58;9.52;;;;;;;13.40;100.00;101617.25;5258352;28;20025;-85
2021/06/22 08:17:07;;;;;;;21.48;8.93;;;;;;;13.46;100.00;101622.00;5263608;28;20048;-85
2021/06/22 08:19:38;;;;;;;21.98;9.50;;;;;;;13.46;100.00;101609.38;5263455;28;20028;-86
2021/06/22 08:22:08;;;;;;;23.70;9.65;;;;;;;13.45;100.00;101618.47;5257954;28;20031;-84
2021/06/22 08:24:39;;;;;;;19.60;9.23;;;;;;;13.52;100.00;101615.09;5253248;28;20016;-85
2021/06/22 08:27:09;;;;;;;22.80;10.25;;;;;;;13.56;100.00;101625.38;5259750;28;20196;-85
2021/06/22 08:29:40;;;;;;;23.48;10.10;;;;;;;13.56;100.00;101628.09;5256172;28;20467;-84
2021/06/22 08:32:10;;;;;;;19.70;9.00;;;;;;;13.60;100.00;101623.19;5257820;28;20461;-85
2021/06/22 08:34:41;;;;;;;26.40;10.32;;;;;;;13.58;100.00;101634.13;5249039;28;20036;-84
2021/06/22 08:37:11;;;;;;;27.35;9.98;;;;;;;13.58;100.00;101627.91;5234619;28;20099;-84
2021/06/22 08:39:42;;;;;;;19.83;9.27;;;;;;;13.52;100.00;101634.81;5249965;28;20185;-85
2021/06/22 08:42:14;;;;;;;19.73;7.75;;;;;;;13.48;100.00;101628.91;5264396;28;20170;-85
2021/06/22 08:44:49;;;;;;;20.88;8.38;;;;;;;13.55;100.00;101637.16;5243475;28;20040;-85
2021/06/22 08:47:25;;;;;;;23.05;8.32;;;;;;;13.52;100.00;101629.41;5257012;28;20340;-85
2021/06/22 08:49:57;;;;;;;20.15;7.93;;;;;;;13.49;100.00;101629.75;5253972;28;20035;-85
2021/06/22 08:52:31;;;;;;;28.23;9.05;;;;;;;13.44;100.00;101645.56;5260308;28;20502;-85
2021/06/22 08:55:07;;;;;;;21.33;8.55;;;;;;;13.46;100.00;101643.56;5251641;28;20035;-85
2021/06/22 08:57:37;;;;;;;20.25;8.73;;;;;;;13.55;100.00;101645.25;5250567;28;20027;-85
2021/06/22 09:00:08;;;;;;;24.52;7.90;;;;;;;13.58;100.00;101639.53;5262738;28;20020;-84
2021/06/22 09:02:39;;;;;;;20.23;8.30;;;;;;;13.58;100.00;101630.59;5235602;28;20514;-83
2021/06/22 09:05:10;;;;;;;17.90;9.07;;;;;;;13.64;100.00;101630.75;5247442;28;20422;-84
2021/06/22 09:07:50;;;;;;;18.27;8.80;;;;;;;13.94;100.00;101636.50;5250753;28;20364;-84
2021/06/22 09:10:34;;;;;;;15.20;8.25;;;;;;;14.12;100.00;101625.56;5263853;28;20027;-85
2021/06/22 09:13:20;;;;;;;19.83;8.40;;;;;;;14.42;100.00;101641.00;5252918;28;20020;-85
2021/06/22 09:15:53;;;;;;;29.30;9.75;;;;;;;14.70;100.00;101640.63;5260404;28;20024;-85
2021/06/22 09:18:35;;;;;;;16.70;7.72;;;;;;;14.64;100.00;101650.25;5250522;28;20016;-85
2021/06/22 09:21:10;;;;;;;16.58;7.65;;;;;;;14.67;100.00;101640.97;5260867;28;20039;-84
2021/06/22 09:23:43;;;;;;;23.23;9.02;;;;;;;14.75;100.00;101644.47;5257969;28;20016;-85
2021/06/22 09:26:14;;;;;;;17.20;8.32;;;;;;;14.79;100.00;101631.47;5255129;28;20459;-84
2021/06/22 09:28:46;;;;;;;25.20;8.98;;;;;;;14.69;100.00;101639.78;5258970;28;20025;-84
2021/06/22 09:31:20;;;;;;;21.67;8.82;;;;;;;14.57;100.00;101626.84;5261370;28;20479;-84
2021/06/22 09:33:53;;;;;;;22.45;11.20;;;;;;;14.44;100.00;101630.03;5249472;28;20040;-84
2021/06/22 09:36:28;;;;;;;21.75;10.25;;;;;;;14.38;100.00;101633.44;5247415;28;20479;-85
2021/06/22 09:39:06;;;;;;;23.45;11.13;;;;;;;14.33;100.00;101642.03;5260043;28;20036;-84
2021/06/22 09:41:41;;;;;;;25.92;10.38;;;;;;;14.29;100.00;101632.59;5247231;28;20027;-84
2021/06/22 09:44:14;;;;;;;20.80;11.25;;;;;;;14.19;100.00;101640.88;5264358;28;20027;-84
2021/06/22 09:46:50;;;;;;;22.15;10.35;;;;;;;14.16;100.00;101638.53;5267853;28;20028;-84
2021/06/22 09:49:22;;;;;;;21.70;10.15;;;;;;;14.22;100.00;101637.00;5253794;28;21130;-85
2021/06/22 09:52:01;;;;;;;27.55;11.00;;;;;;;14.14;100.00;101645.94;5254528;28;20117;-84
2021/06/22 09:54:48;;;;;;;23.23;11.85;;;;;;;13.97;100.00;101646.97;5246818;28;20031;-85
2021/06/22 09:57:21;;;;;;;23.33;12.32;;;;;;;13.91;100.00;101642.25;5246840;28;20119;-84
2021/06/22 10:00:03;;;;;;;25.65;12.25;;;;;;;13.95;100.00;101643.59;5246583;28;20020;-84
2021/06/22 10:02:55;;;;;;;23.35;12.27;;;;;;;14.00;100.00;101635.81;5256620;28;20028;-84
2021/06/22 10:05:25;;;;;;;22.60;12.48;;;;;;;14.00;100.00;101635.81;5263793;28;20024;-84
2021/06/22 10:08:00;;;;;;;25.90;13.77;;;;;;;13.88;100.00;101638.03;5248022;28;20028;-85
2021/06/22 10:10:38;;;;;;;24.67;13.05;;;;;;;13.92;100.00;101639.38;5249306;28;20081;-83
2021/06/22 10:13:09;;;;;;;29.17;12.63;;;;;;;13.89;100.00;101639.72;5263866;28;20023;-85
2021/06/22 10:15:39;;;;;;;34.63;14.63;;;;;;;13.90;100.00;101640.53;5259014;28;20026;-84
2021/06/22 10:18:10;;;;;;;26.67;13.60;;;;;;;13.92;100.00;101635.84;5247639;28;20029;-84
2021/06/22 10:20:41;;;;;;;35.30;15.00;;;;;;;13.97;100.00;101638.88;5246955;28;20723;-85
2021/06/22 10:23:11;;;;;;;27.50;13.85;;;;;;;14.02;100.00;101639.22;5259561;28;20491;-84
2021/06/22 10:25:42;;;;;;;26.25;14.75;;;;;;;14.04;100.00;101637.19;5259284;28;20026;-85
2021/06/22 10:28:14;;;;;;;30.98;15.27;;;;;;;14.11;100.00;101635.50;5253274;28;20036;-85
2021/06/22 10:30:45;;;;;;;29.60;15.73;;;;;;;14.12;100.00;101639.88;5267317;28;20020;-86
2021/06/22 10:33:15;;;;;;;27.30;15.30;;;;;;;14.12;100.00;101639.03;5254186;28;20024;-85
2021/06/22 10:35:47;;;;;;;30.00;15.85;;;;;;;14.05;100.00;101640.72;5254101;28;20021;-85
2021/06/22 10:38:22;;;;;;;32.55;16.92;;;;;;;13.97;100.00;101641.56;5267004;28;20028;-85
2021/06/22 10:40:56;;;;;;;26.83;15.77;;;;;;;13.97;100.00;101641.56;5249070;28;20067;-85
2021/06/22 10:43:38;;;;;;;38.60;17.02;;;;;;;14.02;100.00;101641.06;5256416;28;20310;-84
2021/06/22 10:46:16;;;;;;;33.55;17.17;;;;;;;14.15;100.00;101633.28;5265946;28;20366;-85
2021/06/22 10:48:52;;;;;;;37.33;17.67;;;;;;;14.16;100.00;101635.84;5264116;28;20028;-85
2021/06/22 10:51:35;;;;;;;31.30;17.88;;;;;;;14.19;100.00;101638.16;5250405;28;20310;-85
2021/06/22 10:54:06;;;;;;;35.25;17.83;;;;;;;14.20;100.00;101641.72;5250919;28;20016;-85
2021/06/22 10:56:42;;;;;;;36.85;19.30;;;;;;;14.22;100.00;101645.94;5252728;28;20532;-85
2021/06/22 10:59:12;;;;;;;35.38;18.88;;;;;;;14.23;100.00;101639.53;5252783;28;20069;-85
2021/06/22 11:01:51;;;;;;;36.65;20.05;;;;;;;14.23;100.00;101644.91;5266077;28;20027;-85
2021/06/22 11:04:24;;;;;;;40.67;20.23;;;;;;;14.21;100.00;101641.56;5266390;28;20036;-85
2021/06/22 11:07:07;;;;;;;37.38;21.08;;;;;;;14.21;100.00;101638.88;5255876;28;20522;-85
2021/06/22 11:09:38;;;;;;;39.65;20.20;;;;;;;14.21;100.00;101641.56;5258105;28;20035;-85
2021/06/22 11:12:24;;;;;;;39.83;21.48;;;;;;;14.29;100.00;101629.06;5264534;28;20406;-84
2021/06/22 11:15:04;;;;;;;35.03;20.20;;;;;;;14.30;100.00;101630.72;5249140;28;20225;-84
2021/06/22 11:17:43;;;;;;;42.90;21.83;;;;;;;14.37;100.00;101627.19;5256871;28;20016;-84
2021/06/22 11:20:15;;;;;;;39.67;21.88;;;;;;;14.48;100.00;101626.84;5257904;28;20032;-85
2021/06/22 11:23:13;;;;;;;37.60;21.10;;;;;;;14.45;100.00;101629.84;5259366;28;20058;-84
2021/06/22 11:25:51;;;;;;;38.33;19.23;;;;;;;14.40;100.00;101617.88;5249470;28;20028;-84
2021/06/22 11:28:23;;;;;;;38.40;20.20;;;;;;;14.41;100.00;101628.53;5252047;28;20039;-84
2021/06/22 11:31:01;;;;;;;30.58;19.05;;;;;;;14.34;100.00;101626.69;5251664;28;20048;-85